Time;durP1;ratioP1;P1;durP2;ratioP2;P2;SDS_P1;SDS_P2;PMS_P1;PMS_P2;Temp;Humidity;BMP_temperature;BMP_pressure;BME280_temperature;BME280_humidity;BME280_pressure;Samples;Min_cycle;Max_cycle;Signal;HPM_P1;HPM_P2
2023/03/22 00:00:50;;;;;;;6.28;5.05;;;11.30;99.90;;;;;;4993210;28;20045;-83
2023/03/22 00:03:16;;;;;;;7.07;5.85;;;11.20;99.90;;;;;;4992757;28;20031;-81
2023/03/22 00:05:42;;;;;;;6.75;6.05;;;11.10;99.90;;;;;;4994396;28;20029;-82
2023/03/22 00:08:08;;;;;;;7.57;6.88;;;10.90;99.90;;;;;;4996426;28;20556;-82
2023/03/22 00:10:36;;;;;;;7.82;6.20;;;10.90;99.90;;;;;;4999433;28;20077;-83
2023/03/22 00:13:04;;;;;;;7.13;5.30;;;10.70;99.90;;;;;;5018637;28;20205;-83
2023/03/22 00:15:30;;;;;;;6.65;5.75;;;10.70;99.90;;;;;;5012352;28;20025;-83
2023/03/22 00:17:57;;;;;;;7.30;6.57;;;10.60;99.90;;;;;;4992950;28;20034;-83
2023/03/22 00:20:24;;;;;;;12.60;7.47;;;10.60;99.90;;;;;;4993500;28;20038;-83
2023/03/22 00:22:50;;;;;;;8.18;6.63;;;10.60;99.90;;;;;;4976813;28;20561;-83
2023/03/22 00:25:16;;;;;;;12.13;7.15;;;10.50;99.90;;;;;;4993041;28;20027;-83
2023/03/22 00:27:43;;;;;;;7.93;7.18;;;10.50;99.90;;;;;;4991037;28;20042;-83
2023/03/22 00:30:10;;;;;;;12.05;9.05;;;10.40;99.90;;;;;;4966687;28;20508;-82
2023/03/22 00:32:37;;;;;;;8.32;7.50;;;10.50;99.90;;;;;;4995336;28;20088;-82
2023/03/22 00:35:06;;;;;;;10.98;7.68;;;10.50;99.90;;;;;;4990391;28;20038;-83
2023/03/22 00:37:33;;;;;;;8.95;7.25;;;10.40;99.90;;;;;;4993517;28;20103;-83
2023/03/22 00:40:03;;;;;;;9.23;7.97;;;10.50;99.90;;;;;;5013134;28;20084;-82
2023/03/22 00:42:29;;;;;;;9.55;7.65;;;10.60;99.90;;;;;;5012545;28;20037;-82
2023/03/22 00:44:55;;;;;;;9.40;8.45;;;10.50;99.90;;;;;;4995321;28;20034;-83
2023/03/22 00:47:22;;;;;;;7.97;7.25;;;10.40;99.90;;;;;;4990603;28;20389;-83
2023/03/22 00:49:48;;;;;;;7.53;6.40;;;10.30;99.90;;;;;;4993609;28;20097;-83
2023/03/22 00:52:14;;;;;;;8.13;6.63;;;10.30;99.90;;;;;;4995692;28;20424;-83
2023/03/22 00:54:40;;;;;;;12.90;8.18;;;10.20;99.90;;;;;;5011984;28;20036;-82
2023/03/22 00:57:06;;;;;;;7.90;7.20;;;10.30;99.90;;;;;;5010433;28;20030;-83
2023/03/22 00:59:37;;;;;;;7.80;6.60;;;10.20;99.90;;;;;;4995625;28;20258;-83
2023/03/22 01:02:04;;;;;;;9.73;7.80;;;10.20;99.90;;;;;;5011626;28;20058;-83
2023/03/22 01:04:31;;;;;;;10.63;7.53;;;10.20;99.90;;;;;;5011693;28;20076;-82
2023/03/22 01:07:02;;;;;;;7.03;5.70;;;10.20;99.90;;;;;;4993510;28;20148;-82
2023/03/22 01:09:32;;;;;;;8.25;5.82;;;10.70;99.90;;;;;;4995369;28;20029;-83
2023/03/22 01:11:59;;;;;;;;;;;10.30;99.90;;;;;;5012307;28;20029;-81
2023/03/22 01:14:25;;;;;;;9.10;6.07;;;10.40;99.90;;;;;;5011532;28;19913;-83
2023/03/22 01:16:56;;;;;;;9.75;6.32;;;10.80;99.90;;;;;;5008962;28;20058;-83
2023/03/22 01:19:23;;;;;;;8.05;6.28;;;10.30;99.90;;;;;;4995228;28;20022;-82
2023/03/22 01:21:49;;;;;;;7.07;6.40;;;10.30;99.90;;;;;;4995274;28;20034;-83
2023/03/22 01:24:15;;;;;;;7.53;5.75;;;10.20;99.90;;;;;;5011411;28;20079;-82
2023/03/22 01:26:41;;;;;;;7.72;4.65;;;10.20;99.90;;;;;;5010346;28;20487;-83
2023/03/22 01:29:08;;;;;;;7.68;6.20;;;10.20;99.90;;;;;;4984821;28;20049;-83
2023/03/22 01:31:34;;;;;;;7.07;6.00;;;10.20;99.90;;;;;;4977681;28;20026;-82
2023/03/22 01:33:59;;;;;;;7.18;6.45;;;10.10;99.90;;;;;;5011134;28;20026;-83
2023/03/22 01:36:26;;;;;;;8.13;5.85;;;10.20;99.90;;;;;;5009565;28;20034;-83
2023/03/22 01:38:52;;;;;;;6.85;4.80;;;10.10;99.90;;;;;;4994739;28;20125;-82
2023/03/22 01:41:20;;;;;;;10.52;5.95;;;10.10;99.90;;;;;;4995370;28;20439;-82
2023/03/22 01:44:13;;;;;;;5.03;4.63;;;10.00;99.90;;;;;;4994801;28;20034;-83
2023/03/22 01:46:40;;;;;;;5.82;5.10;;;10.00;99.90;;;;;;4993751;28;20036;-83
2023/03/22 01:49:12;;;;;;;5.28;4.78;;;9.90;99.90;;;;;;5011318;28;20038;-83
2023/03/22 01:51:41;;;;;;;10.63;6.47;;;9.90;99.90;;;;;;4994877;28;20093;-82
2023/03/22 01:54:53;;;;;;;7.25;5.47;;;9.90;99.90;;;;;;4996830;28;20068;-83
2023/03/22 01:57:43;;;;;;;8.15;4.97;;;9.90;99.90;;;;;;5009537;28;20489;-82
2023/03/22 02:00:17;;;;;;;4.78;4.18;;;9.90;99.90;;;;;;4995811;28;20035;-83
2023/03/22 02:03:06;;;;;;;11.38;7.15;;;9.90;99.90;;;;;;4990830;28;20030;-82
2023/03/22 02:05:40;;;;;;;8.20;5.43;;;9.80;99.90;;;;;;4992967;28;20038;-83
2023/03/22 02:08:08;;;;;;;9.50;5.60;;;9.90;99.90;;;;;;5010652;28;20512;-82
2023/03/22 02:10:51;;;;;;;5.38;4.55;;;9.80;99.90;;;;;;4996742;28;20101;-83
2023/03/22 02:13:41;;;;;;;9.88;3.97;;;9.80;99.90;;;;;;4974857;28;20123;-83
2023/03/22 02:16:45;;;;;;;7.30;3.97;;;9.80;99.90;;;;;;4994318;28;20475;-82
2023/03/22 02:19:41;;;;;;;6.32;4.22;;;9.80;99.90;;;;;;4995131;28;20030;-83
2023/03/22 02:22:08;;;;;;;5.10;4.47;;;9.80;99.90;;;;;;4994338;28;20037;-82
2023/03/22 02:25:25;;;;;;;10.32;4.20;;;9.80;99.90;;;;;;4993162;28;20030;-82
2023/03/22 02:28:03;;;;;;;6.03;5.07;;;9.80;99.90;;;;;;4964591;28;20093;-82
2023/03/22 02:30:48;;;;;;;3.95;3.65;;;9.80;99.90;;;;;;4995212;28;20030;-83
2023/03/22 02:33:46;;;;;;;4.55;4.05;;;9.80;99.90;;;;;;4994874;28;20122;-83
2023/03/22 02:36:12;;;;;;;6.72;4.53;;;10.00;99.90;;;;;;5000524;28;20026;-82
2023/03/22 02:39:12;;;;;;;5.65;5.00;;;10.00;99.90;;;;;;4997733;28;20113;-82
2023/03/22 02:41:49;;;;;;;4.15;3.42;;;10.00;99.90;;;;;;4998150;28;20037;-82
2023/03/22 02:44:41;;;;;;;4.60;3.67;;;10.00;99.90;;;;;;5014236;28;20041;-81
2023/03/22 02:47:20;;;;;;;4.18;3.65;;;9.90;99.90;;;;;;4974506;28;20045;-82
2023/03/22 02:50:14;;;;;;;5.15;4.38;;;9.90;99.90;;;;;;5014258;28;20032;-82
2023/03/22 02:52:52;;;;;;;3.92;3.17;;;9.90;99.90;;;;;;4997709;28;20048;-82
2023/03/22 02:55:30;;;;;;;9.00;4.13;;;10.00;99.90;;;;;;4997911;28;20116;-82
2023/03/22 02:58:21;;;;;;;3.95;3.50;;;9.90;99.90;;;;;;5013988;28;20030;-83
2023/03/22 03:00:50;;;;;;;4.25;3.00;;;9.80;99.90;;;;;;5014190;28;20108;-82
2023/03/22 03:03:18;;;;;;;11.70;3.42;;;9.80;99.90;;;;;;4997834;28;20030;-82
2023/03/22 03:05:49;;;;;;;6.38;3.75;;;9.80;99.90;;;;;;5013004;28;20100;-82
2023/03/22 03:08:17;;;;;;;7.38;4.78;;;9.80;99.90;;;;;;5013842;28;20030;-82
2023/03/22 03:10:44;;;;;;;3.42;2.95;;;9.80;99.90;;;;;;5013866;28;20025;-83
2023/03/22 03:13:16;;;;;;;4.15;3.85;;;9.60;99.90;;;;;;4995415;28;20034;-82
2023/03/22 03:15:45;;;;;;;4.85;2.53;;;9.70;99.90;;;;;;4992377;28;20041;-83
2023/03/22 03:18:13;;;;;;;2.83;2.63;;;9.60;99.90;;;;;;4993440;28;20030;-82
2023/03/22 03:20:59;;;;;;;3.72;2.92;;;9.60;99.90;;;;;;4991220;28;20038;-82
2023/03/22 03:23:37;;;;;;;3.78;3.45;;;9.60;99.90;;;;;;4997683;28;20044;-82
2023/03/22 03:26:21;;;;;;;4.90;3.47;;;9.60;99.90;;;;;;4995787;28;20026;-82
2023/03/22 03:29:05;;;;;;;3.47;3.15;;;9.60;99.90;;;;;;5003822;28;20030;-82
2023/03/22 03:31:31;;;;;;;5.03;2.83;;;9.60;99.90;;;;;;4982207;28;20041;-83
2023/03/22 03:34:11;;;;;;;2.55;2.35;;;9.50;99.90;;;;;;5013375;28;20033;-82
2023/03/22 03:36:43;;;;;;;7.93;4.05;;;9.60;99.90;;;;;;4992905;28;20030;-83
2023/03/22 03:39:14;;;;;;;3.20;2.90;;;9.60;99.90;;;;;;4976805;28;20484;-82
2023/03/22 03:41:43;;;;;;;2.67;2.40;;;9.50;99.90;;;;;;4993899;28;20034;-82
2023/03/22 03:44:09;;;;;;;4.50;3.03;;;9.70;99.90;;;;;;4993348;28;20042;-83
2023/03/22 03:46:36;;;;;;;6.47;3.28;;;9.70;99.90;;;;;;5002003;28;20056;-82
2023/03/22 03:49:04;;;;;;;4.15;2.85;;;9.60;99.90;;;;;;4997005;28;20452;-82
2023/03/22 03:51:31;;;;;;;4.00;3.10;;;9.70;99.90;;;;;;5012900;28;20358;-82
2023/03/22 03:53:57;;;;;;;14.48;3.50;;;9.70;99.90;;;;;;5012807;28;20054;-81
2023/03/22 03:56:23;;;;;;;5.78;2.92;;;9.70;99.90;;;;;;4995581;28;20065;-82
2023/03/22 03:58:58;;;;;;;4.10;3.63;;;9.70;99.90;;;;;;4983222;28;20041;-83
2023/03/22 04:01:25;;;;;;;4.25;2.97;;;9.60;99.90;;;;;;4996803;28;20038;-83
2023/03/22 04:03:57;;;;;;;3.20;2.38;;;9.70;99.90;;;;;;4982617;28;20048;-82
2023/03/22 04:06:58;;;;;;;5.60;2.80;;;9.60;99.90;;;;;;4990165;28;20477;-82
2023/03/22 04:09:30;;;;;;;4.80;3.25;;;9.70;99.90;;;;;;4996115;28;20044;-82
2023/03/22 04:12:02;;;;;;;4.18;2.38;;;9.60;99.90;;;;;;5012700;28;20117;-82
2023/03/22 04:14:29;;;;;;;3.88;2.42;;;9.60;99.90;;;;;;5012933;28;20497;-83
2023/03/22 04:16:58;;;;;;;4.35;3.20;;;10.00;99.90;;;;;;4995295;28;20030;-82
2023/03/22 04:19:24;;;;;;;3.08;2.55;;;9.50;99.90;;;;;;4964176;28;20412;-82
2023/03/22 04:21:51;;;;;;;4.22;2.13;;;9.60;99.90;;;;;;5012727;28;20041;-83
2023/03/22 04:24:20;;;;;;;4.13;2.85;;;9.60;99.90;;;;;;4996860;28;20022;-82
2023/03/22 04:26:51;;;;;;;7.72;2.33;;;9.60;99.90;;;;;;5007393;28;20029;-82
2023/03/22 04:29:23;;;;;;;3.50;2.55;;;9.60;99.90;;;;;;5012437;28;20041;-82
2023/03/22 04:31:54;;;;;;;3.03;1.88;;;9.60;99.90;;;;;;4996941;28;20030;-82
2023/03/22 04:34:28;;;;;;;5.10;2.80;;;9.50;99.90;;;;;;5029195;28;20346;-82
2023/03/22 04:37:03;;;;;;;5.18;2.55;;;9.40;99.90;;;;;;4980616;28;20049;-82
2023/03/22 04:39:30;;;;;;;4.88;2.88;;;9.50;99.90;;;;;;5013744;28;20069;-82
2023/03/22 04:42:10;;;;;;;3.92;2.70;;;9.50;99.90;;;;;;4997606;28;20041;-82
2023/03/22 04:44:37;;;;;;;2.83;1.40;;;9.40;99.90;;;;;;4995770;28;20033;-82
2023/03/22 04:47:03;;;;;;;3.83;2.85;;;9.40;99.90;;;;;;4978194;28;20046;-82
2023/03/22 04:49:30;;;;;;;3.47;3.13;;;9.50;99.90;;;;;;5012001;28;20069;-82
2023/03/22 04:51:56;;;;;;;6.28;2.75;;;9.50;99.90;;;;;;4995612;28;20473;-82
2023/03/22 04:54:33;;;;;;;4.70;2.28;;;9.60;99.90;;;;;;5012090;28;20034;-82
2023/03/22 04:57:00;;;;;;;2.65;2.05;;;9.50;99.90;;;;;;5010291;28;20030;-82
2023/03/22 04:59:29;;;;;;;3.22;2.92;;;9.50;99.90;;;;;;4996058;28;20025;-82
2023/03/22 05:01:57;;;;;;;14.05;2.55;;;9.50;99.90;;;;;;4995267;28;20559;-82
2023/03/22 05:04:26;;;;;;;2.50;2.30;;;9.50;99.90;;;;;;4980068;28;20121;-82
2023/03/22 05:06:59;;;;;;;7.85;2.97;;;9.50;99.90;;;;;;5010214;28;20024;-81
2023/03/22 05:09:33;;;;;;;12.07;2.60;;;9.50;99.90;;;;;;4996799;28;20506;-81
2023/03/22 05:11:59;;;;;;;3.28;2.95;;;9.50;99.90;;;;;;4991893;28;20030;-83
2023/03/22 05:14:29;;;;;;;;;;;9.60;99.90;;;;;;4977141;28;20040;-82
2023/03/22 05:16:55;;;;;;;5.70;2.17;;;9.60;99.90;;;;;;4993280;28;19918;-81
2023/03/22 05:19:23;;;;;;;1.90;1.80;;;9.60;99.90;;;;;;4995631;28;20037;-82
2023/03/22 05:21:56;;;;;;;4.40;3.47;;;9.70;99.90;;;;;;4995415;28;20048;-84
2023/03/22 05:24:23;;;;;;;4.40;2.83;;;9.70;99.90;;;;;;4995635;28;20036;-84
2023/03/22 05:26:52;;;;;;;6.78;2.88;;;9.90;99.90;;;;;;4990046;28;20031;-84
2023/03/22 05:29:21;;;;;;;3.85;3.10;;;9.80;99.90;;;;;;4989721;28;20427;-84
2023/03/22 05:32:13;;;;;;;6.18;3.88;;;9.80;99.90;;;;;;4996808;28;20189;-82
2023/03/22 05:34:40;;;;;;;3.70;2.35;;;9.80;99.90;;;;;;4978536;28;20133;-82
2023/03/22 05:37:19;;;;;;;9.07;2.47;;;10.00;99.90;;;;;;4995165;28;20025;-80
2023/03/22 05:39:54;;;;;;;3.88;3.30;;;9.90;99.90;;;;;;5011443;28;20068;-81
2023/03/22 05:42:26;;;;;;;3.83;2.53;;;10.00;99.90;;;;;;4995523;28;20129;-82
2023/03/22 05:44:52;;;;;;;2.85;2.60;;;9.90;99.90;;;;;;4994584;28;20033;-85
2023/03/22 05:47:19;;;;;;;3.60;2.22;;;10.00;99.90;;;;;;4991324;28;20044;-85
2023/03/22 05:49:55;;;;;;;5.35;2.95;;;10.00;99.90;;;;;;4998425;28;20045;-84
2023/03/22 05:52:22;;;;;;;5.63;2.25;;;10.00;99.90;;;;;;4978825;28;20151;-83
2023/03/22 05:55:13;;;;;;;2.75;2.55;;;10.10;99.90;;;;;;5004504;28;20095;-82
2023/03/22 05:57:39;;;;;;;4.15;1.98;;;10.00;99.90;;;;;;5010242;28;20488;-82
2023/03/22 06:00:12;;;;;;;7.63;2.25;;;10.40;99.90;;;;;;4977266;28;20477;-84
2023/03/22 06:03:02;;;;;;;4.38;3.50;;;10.10;99.90;;;;;;4998489;28;20022;-83
2023/03/22 06:05:30;;;;;;;5.85;2.88;;;10.00;99.90;;;;;;4982994;28;20030;-85
2023/03/22 06:07:56;;;;;;;3.58;1.92;;;10.10;99.90;;;;;;4998840;28;20033;-85
2023/03/22 06:10:23;;;;;;;24.50;4.25;;;10.10;99.90;;;;;;5002121;28;20029;-86
2023/03/22 06:12:49;;;;;;;5.57;3.35;;;10.10;99.90;;;;;;5005812;28;20054;-85
2023/03/22 06:15:23;;;;;;;4.35;2.78;;;9.90;99.90;;;;;;4997314;28;20563;-84
2023/03/22 06:18:02;;;;;;;4.00;2.42;;;10.20;99.90;;;;;;5007775;28;20049;-84
2023/03/22 06:20:32;;;;;;;5.38;3.22;;;10.10;99.90;;;;;;5014406;28;20038;-84
2023/03/22 06:23:02;;;;;;;;;;;10.20;99.90;;;;;;5014122;28;20083;-83
2023/03/22 06:25:28;;;;;;;4.53;2.97;;;10.30;99.90;;;;;;5009834;28;19909;-85
2023/03/22 06:27:55;;;;;;;12.00;3.60;;;10.30;99.90;;;;;;4997853;28;20128;-84
2023/03/22 06:30:22;;;;;;;3.80;2.08;;;10.30;99.90;;;;;;5011923;28;20021;-85
2023/03/22 06:33:11;;;;;;;;;;;10.40;99.90;;;;;;4984444;28;20049;-85
2023/03/22 06:35:41;;;;;;;23.45;14.52;;;10.40;99.90;;;;;;4999136;28;23959;-86
2023/03/22 06:38:09;;;;;;;11.93;6.43;;;10.40;99.90;;;;;;4987914;28;20033;-82
2023/03/22 06:40:36;;;;;;;6.78;3.50;;;10.40;99.90;;;;;;5017439;28;20053;-86
2023/03/22 06:43:03;;;;;;;4.78;3.70;;;10.40;99.90;;;;;;4998314;28;20041;-84
2023/03/22 06:45:33;;;;;;;5.72;4.00;;;10.50;99.90;;;;;;5011496;28;20033;-82
2023/03/22 06:48:00;;;;;;;10.02;4.47;;;10.40;99.90;;;;;;4996471;28;20037;-85
2023/03/22 06:50:48;;;;;;;4.10;2.47;;;10.50;99.90;;;;;;5000669;28;20122;-84
2023/03/22 06:53:19;;;;;;;11.98;3.78;;;10.60;99.90;;;;;;5013862;28;20037;-85
2023/03/22 06:55:45;;;;;;;2.20;1.98;;;10.60;99.90;;;;;;4979068;28;20089;-85
2023/03/22 06:58:16;;;;;;;7.72;3.13;;;10.60;99.90;;;;;;4998119;28;20034;-83
2023/03/22 07:00:42;;;;;;;2.28;1.80;;;10.60;99.90;;;;;;4995606;28;20043;-83
2023/03/22 07:03:08;;;;;;;5.97;2.70;;;10.70;99.90;;;;;;5013892;28;20469;-84
2023/03/22 07:05:47;;;;;;;7.70;3.42;;;10.80;99.90;;;;;;4995391;28;20058;-84
2023/03/22 07:08:14;;;;;;;3.15;2.83;;;10.90;99.90;;;;;;5006545;28;20026;-85
2023/03/22 07:10:50;;;;;;;4.75;4.07;;;11.00;99.90;;;;;;5012334;28;20038;-83
2023/03/22 07:13:17;;;;;;;6.45;2.20;;;11.10;99.90;;;;;;5012920;28;20058;-83
2023/03/22 07:15:45;;;;;;;4.20;3.30;;;11.10;99.90;;;;;;4996412;28;20026;-83
2023/03/22 07:18:22;;;;;;;6.75;5.82;;;11.10;99.90;;;;;;5013757;28;20030;-82
2023/03/22 07:20:48;;;;;;;8.10;4.03;;;11.20;99.90;;;;;;4996952;28;20041;-85
2023/03/22 07:23:15;;;;;;;7.07;3.80;;;11.40;99.90;;;;;;5003509;28;20507;-81
2023/03/22 07:25:48;;;;;;;3.70;3.05;;;11.60;99.90;;;;;;5008083;28;20091;-85
2023/03/22 07:28:27;;;;;;;8.25;4.32;;;11.80;99.90;;;;;;5006227;28;20038;-85
2023/03/22 07:31:08;;;;;;;5.30;3.80;;;11.90;99.90;;;;;;5010505;28;20030;-84
2023/03/22 07:33:59;;;;;;;12.75;4.47;;;11.70;99.90;;;;;;5006347;28;20477;-85
2023/03/22 07:36:28;;;;;;;13.73;11.77;;;11.80;99.90;;;;;;4993964;28;20362;-85
2023/03/22 07:38:54;;;;;;;2.63;2.42;;;11.90;99.90;;;;;;4996413;28;20026;-84
2023/03/22 07:41:31;;;;;;;8.13;6.60;;;12.80;99.90;;;;;;5001259;28;20073;-84
2023/03/22 07:44:16;;;;;;;18.27;10.95;;;12.70;99.90;;;;;;5013743;28;20044;-84
2023/03/22 07:46:50;;;;;;;8.07;5.45;;;13.10;99.90;;;;;;5012128;28;20113;-86
2023/03/22 07:49:20;;;;;;;7.60;3.03;;;12.90;99.90;;;;;;4988454;28;20053;-83
2023/03/22 07:52:08;;;;;;;5.53;4.43;;;12.80;99.90;;;;;;4993471;28;20041;-82
2023/03/22 07:54:34;;;;;;;5.68;4.97;;;12.60;99.90;;;;;;4996341;28;20464;-83
2023/03/22 07:57:02;;;;;;;8.25;6.40;;;12.70;99.90;;;;;;4963438;28;20355;-81
2023/03/22 07:59:30;;;;;;;5.55;3.65;;;12.60;99.90;;;;;;5012805;28;20030;-82
2023/03/22 08:01:56;;;;;;;7.28;6.57;;;12.60;99.90;;;;;;5012032;28;20063;-82
2023/03/22 08:04:26;;;;;;;10.88;2.33;;;12.80;99.90;;;;;;5011650;28;20025;-83
2023/03/22 08:06:58;;;;;;;9.18;2.92;;;13.80;99.90;;;;;;4991839;28;20104;-82
2023/03/22 08:09:27;;;;;;;6.82;3.03;;;;;;;;;;4988175;28;20116;-83
2023/03/22 08:11:54;;;;;;;22.13;4.32;;;17.50;99.90;;;;;;4993422;28;20085;-81
2023/03/22 08:14:20;;;;;;;17.65;6.50;;;18.70;99.90;;;;;;4989169;28;20021;-81
2023/03/22 08:16:46;;;;;;;35.17;21.40;;;19.40;99.90;;;;;;4994675;28;20136;-82
2023/03/22 08:19:12;;;;;;;32.53;18.40;;;19.30;99.90;;;;;;5011527;28;20071;-82
2023/03/22 08:21:38;;;;;;;16.77;7.68;;;17.40;99.90;;;;;;4995748;28;20092;-82
2023/03/22 08:24:08;;;;;;;8.13;4.50;;;16.80;99.90;;;;;;4996110;28;20056;-82
2023/03/22 08:26:49;;;;;;;9.57;3.58;;;15.90;99.90;;;;;;4995233;28;20041;-82
2023/03/22 08:29:29;;;;;;;4.85;3.88;;;15.20;99.90;;;;;;4997654;28;20089;-82
2023/03/22 08:32:00;;;;;;;8.18;6.03;;;15.20;99.90;;;;;;4986270;28;20017;-82
2023/03/22 08:34:32;;;;;;;2.78;2.35;;;15.20;99.90;;;;;;5012039;28;20026;-82
2023/03/22 08:36:58;;;;;;;4.55;1.52;;;15.10;99.90;;;;;;5010740;28;20040;-81
2023/03/22 08:39:23;;;;;;;3.22;2.03;;;14.80;99.90;;;;;;5011742;28;20030;-81
2023/03/22 08:42:15;;;;;;;3.13;1.75;;;15.00;99.90;;;;;;4976605;28;20052;-82
2023/03/22 08:44:41;;;;;;;17.42;4.15;;;15.20;99.90;;;;;;4993642;28;20126;-82
2023/03/22 08:47:07;;;;;;;2.05;1.88;;;14.70;99.90;;;;;;5002753;28;20113;-81
2023/03/22 08:49:33;;;;;;;6.97;2.75;;;14.80;99.90;;;;;;4995478;28;20464;-81
2023/03/22 08:52:07;;;;;;;6.45;4.18;;;15.80;99.90;;;;;;4980504;28;20469;-81
2023/03/22 08:54:53;;;;;;;2.88;1.38;;;15.80;99.90;;;;;;4987162;28;20034;-82
2023/03/22 08:57:37;;;;;;;5.50;1.63;;;15.10;99.90;;;;;;4991603;28;20069;-82
2023/03/22 09:00:19;;;;;;;2.28;1.40;;;15.10;99.90;;;;;;4997503;28;20037;-83
2023/03/22 09:02:56;;;;;;;5.75;2.90;;;14.80;99.90;;;;;;4996745;28;20034;-82
2023/03/22 09:05:22;;;;;;;5.90;2.30;;;14.70;99.90;;;;;;4980130;28;20042;-83
2023/03/22 09:07:52;;;;;;;2.38;2.05;;;14.60;99.90;;;;;;4986487;28;20033;-83
2023/03/22 09:10:31;;;;;;;3.92;1.75;;;14.50;99.90;;;;;;5011933;28;20114;-83
2023/03/22 09:12:57;;;;;;;5.72;2.97;;;14.50;99.90;;;;;;4995186;28;20089;-82
2023/03/22 09:15:23;;;;;;;3.80;2.00;;;15.00;99.90;;;;;;4977762;28;20030;-82
2023/03/22 09:18:04;;;;;;;1.63;0.98;;;15.00;99.90;;;;;;4995773;28;20045;-84
2023/03/22 09:20:33;;;;;;;6.60;1.98;;;14.90;99.90;;;;;;5004682;28;20097;-81
2023/03/22 09:23:01;;;;;;;4.25;2.42;;;14.90;99.90;;;;;;5001669;28;20038;-83
2023/03/22 09:25:27;;;;;;;3.70;1.88;;;14.90;99.90;;;;;;4994010;28;20030;-83
2023/03/22 09:27:53;;;;;;;5.70;2.45;;;14.90;99.90;;;;;;4994157;28;20377;-84
2023/03/22 09:30:19;;;;;;;8.77;3.90;;;14.90;99.90;;;;;;4994832;28;20425;-82
2023/03/22 09:32:45;;;;;;;7.28;1.80;;;14.90;99.90;;;;;;4994861;28;20473;-83
2023/03/22 09:35:14;;;;;;;6.30;2.03;;;14.80;99.90;;;;;;4995056;28;20025;-82
2023/03/22 09:37:53;;;;;;;7.95;2.00;;;14.80;99.90;;;;;;4962038;28;20393;-82
2023/03/22 09:40:23;;;;;;;3.90;1.50;;;14.60;99.90;;;;;;4976138;28;20393;-82
2023/03/22 09:42:53;;;;;;;5.75;1.90;;;14.50;99.90;;;;;;4975549;28;20033;-82
2023/03/22 09:45:45;;;;;;;5.68;1.65;;;14.50;99.90;;;;;;4992431;28;20417;-82
2023/03/22 09:48:16;;;;;;;4.82;1.48;;;14.70;99.90;;;;;;4975439;28;20363;-81
2023/03/22 09:50:52;;;;;;;4.45;3.08;;;14.80;99.90;;;;;;5009139;28;20758;-81
2023/03/22 09:53:19;;;;;;;7.53;3.03;;;14.40;99.90;;;;;;4994572;28;20030;-83
2023/03/22 09:55:51;;;;;;;8.60;2.10;;;14.50;99.90;;;;;;4992940;28;20034;-84
2023/03/22 09:58:26;;;;;;;7.70;1.70;;;14.40;99.90;;;;;;4991533;28;20042;-83
2023/03/22 10:01:04;;;;;;;4.60;2.00;;;14.40;99.90;;;;;;5008297;28;20103;-83
2023/03/22 10:03:54;;;;;;;7.57;2.70;;;14.20;99.90;;;;;;4994622;28;20030;-82
2023/03/22 10:06:22;;;;;;;4.28;2.35;;;14.40;99.90;;;;;;4992745;28;20034;-84
2023/03/22 10:09:00;;;;;;;3.13;1.38;;;14.30;99.90;;;;;;4994694;28;20033;-83
2023/03/22 10:12:04;;;;;;;9.00;2.55;;;14.30;99.90;;;;;;5010313;28;20516;-82
2023/03/22 10:14:46;;;;;;;6.88;2.42;;;14.10;99.90;;;;;;4993793;28;20500;-83
2023/03/22 10:17:17;;;;;;;4.65;1.75;;;14.20;99.90;;;;;;5009092;28;20099;-84
2023/03/22 10:19:50;;;;;;;5.32;1.08;;;14.00;99.90;;;;;;5011819;28;20125;-85
2023/03/22 10:22:21;;;;;;;3.58;1.58;;;14.10;99.90;;;;;;5010892;28;20049;-83
2023/03/22 10:24:50;;;;;;;2.22;1.40;;;14.00;99.90;;;;;;5010899;28;20033;-83
2023/03/22 10:27:19;;;;;;;4.35;1.48;;;13.90;99.90;;;;;;5013143;28;20034;-83
2023/03/22 10:30:00;;;;;;;3.90;1.23;;;13.90;99.90;;;;;;5012932;28;20037;-85
2023/03/22 10:32:41;;;;;;;3.00;1.73;;;13.60;99.90;;;;;;4994309;28;20037;-85
2023/03/22 10:35:15;;;;;;;2.38;1.98;;;13.60;99.90;;;;;;5013167;28;20038;-83
2023/03/22 10:37:45;;;;;;;4.22;1.30;;;13.50;99.90;;;;;;4998521;28;20034;-84
2023/03/22 10:40:31;;;;;;;;;;;13.40;99.90;;;;;;5007167;28;20041;-83
2023/03/22 10:43:06;;;;;;;3.65;2.08;;;13.40;99.90;;;;;;4987678;28;19918;-82
2023/03/22 10:45:34;;;;;;;3.33;2.35;;;13.30;99.90;;;;;;5006468;28;20025;-84
2023/03/22 10:48:08;;;;;;;3.35;1.52;;;13.30;99.90;;;;;;4994635;28;20029;-86
2023/03/22 10:50:36;;;;;;;7.63;1.27;;;13.30;99.90;;;;;;4997598;28;20026;-84
2023/03/22 10:53:23;;;;;;;3.28;1.77;;;13.20;99.90;;;;;;5019895;28;20041;-84
2023/03/22 10:55:49;;;;;;;6.03;1.25;;;13.30;99.90;;;;;;4999703;28;20121;-83
2023/03/22 10:58:27;;;;;;;4.80;3.05;;;13.30;99.90;;;;;;5014579;28;20473;-83
2023/03/22 11:00:58;;;;;;;7.10;6.38;;;13.30;99.90;;;;;;4995737;28;20053;-84
2023/03/22 11:03:36;;;;;;;6.88;2.35;;;13.30;99.90;;;;;;4995824;28;20129;-81
2023/03/22 11:06:16;;;;;;;3.47;2.08;;;13.50;99.90;;;;;;5028693;28;20100;-81
2023/03/22 11:08:45;;;;;;;;;;;13.60;99.90;;;;;;4997484;28;20093;-84
2023/03/22 11:11:18;;;;;;;1.20;1.13;;;13.70;99.90;;;;;;4997569;28;19912;-83
2023/03/22 11:13:50;;;;;;;8.88;2.95;;;13.80;99.90;;;;;;5014078;28;20061;-83
2023/03/22 11:16:17;;;;;;;16.20;6.20;;;13.80;99.90;;;;;;5013373;28;20038;-83
2023/03/22 11:18:43;;;;;;;3.78;3.47;;;13.70;99.90;;;;;;5013531;28;20036;-84
2023/03/22 11:21:11;;;;;;;9.25;2.05;;;13.60;99.90;;;;;;4979245;28;20038;-83
2023/03/22 11:23:41;;;;;;;6.07;2.20;;;13.60;99.90;;;;;;5000210;28;20083;-82
2023/03/22 11:26:08;;;;;;;;;;;13.40;99.90;;;;;;4983528;28;20038;-82
2023/03/22 11:28:45;;;;;;;3.72;2.38;;;13.40;99.90;;;;;;4997835;28;19910;-83
2023/03/22 11:31:17;;;;;;;12.02;3.17;;;13.20;99.90;;;;;;4997468;28;20039;-85
2023/03/22 11:33:57;;;;;;;5.90;2.08;;;13.30;99.90;;;;;;4997507;28;20038;-83
2023/03/22 11:36:23;;;;;;;2.90;2.67;;;13.30;99.90;;;;;;5011654;28;20069;-86
2023/03/22 11:38:59;;;;;;;7.80;2.08;;;13.30;99.90;;;;;;5013659;28;20038;-85
2023/03/22 11:41:33;;;;;;;2.63;1.92;;;13.30;99.90;;;;;;5013942;28;20097;-84
2023/03/22 11:44:06;;;;;;;8.88;2.30;;;13.40;99.90;;;;;;5002189;28;20037;-84
2023/03/22 11:46:34;;;;;;;6.13;1.30;;;13.30;99.90;;;;;;5010019;28;20018;-85
2023/03/22 11:49:04;;;;;;;3.80;1.63;;;13.30;99.90;;;;;;5000182;28;20354;-83
2023/03/22 11:51:34;;;;;;;2.70;2.50;;;13.20;99.90;;;;;;5002032;28;20033;-85
2023/03/22 11:54:26;;;;;;;4.55;0.90;;;13.10;99.90;;;;;;5014612;28;20022;-83
2023/03/22 11:56:56;;;;;;;4.28;3.33;;;13.00;99.90;;;;;;4995198;28;20032;-84
2023/03/22 11:59:27;;;;;;;8.18;2.90;;;13.00;99.90;;;;;;5011684;28;20017;-84
2023/03/22 12:02:15;;;;;;;6.18;2.97;;;13.00;99.90;;;;;;5011258;28;20045;-85
2023/03/22 12:04:45;;;;;;;6.30;4.47;;;12.90;99.90;;;;;;4993339;28;20109;-83
2023/03/22 12:07:18;;;;;;;4.95;2.53;;;13.10;99.90;;;;;;4986394;28;20029;-83
2023/03/22 12:09:56;;;;;;;8.10;4.68;;;13.00;99.90;;;;;;5010659;28;20161;-82
2023/03/22 12:12:27;;;;;;;10.18;3.88;;;13.10;99.90;;;;;;5012344;28;20358;-82
2023/03/22 12:15:02;;;;;;;6.93;2.58;;;13.30;99.90;;;;;;5012308;28;20124;-83
2023/03/22 12:17:36;;;;;;;5.22;1.45;;;13.10;99.90;;;;;;4993571;28;20033;-83
2023/03/22 12:20:05;;;;;;;4.10;2.10;;;13.00;99.90;;;;;;4993281;28;20105;-83
2023/03/22 12:22:35;;;;;;;5.57;2.13;;;13.40;99.90;;;;;;4996697;28;20033;-84
2023/03/22 12:25:02;;;;;;;2.42;2.00;;;13.50;99.90;;;;;;4997244;28;20169;-83
2023/03/22 12:27:37;;;;;;;2.63;2.38;;;13.40;99.90;;;;;;4996142;28;20029;-83
2023/03/22 12:30:24;;;;;;;5.82;1.65;;;13.30;99.90;;;;;;5012093;28;20029;-82
2023/03/22 12:33:05;;;;;;;9.25;1.38;;;13.40;99.90;;;;;;5002797;28;20027;-81
2023/03/22 12:35:35;;;;;;;4.43;1.13;;;13.50;99.90;;;;;;4999089;28;20104;-82
2023/03/22 12:38:17;;;;;;;4.77;2.27;;;13.40;99.90;;;;;;5004479;28;20033;-83
2023/03/22 12:40:44;;;;;;;5.72;1.98;;;13.20;99.90;;;;;;4994948;28;20316;-83
2023/03/22 12:43:43;;;;;;;6.47;2.08;;;13.30;99.90;;;;;;5005518;28;20035;-82
2023/03/22 12:46:26;;;;;;;3.53;1.52;;;13.50;99.90;;;;;;5003212;28;20604;-85
2023/03/22 12:49:04;;;;;;;5.55;1.95;;;14.00;99.90;;;;;;5007790;28;20544;-84
2023/03/22 12:51:29;;;;;;;1.50;0.93;;;14.10;99.90;;;;;;5010848;28;20095;-84
2023/03/22 12:53:58;;;;;;;6.10;2.22;;;14.00;99.90;;;;;;5011041;28;20026;-84
2023/03/22 12:56:30;;;;;;;6.18;3.05;;;14.10;99.90;;;;;;5008620;28;20152;-85
2023/03/22 12:59:06;;;;;;;1.80;1.13;;;14.00;99.90;;;;;;5011005;28;20088;-81
2023/03/22 13:01:51;;;;;;;8.23;3.03;;;13.90;99.90;;;;;;5010977;28;20719;-84
2023/03/22 13:04:35;;;;;;;8.82;4.63;;;13.90;99.90;;;;;;5010675;28;20057;-85
2023/03/22 13:07:12;;;;;;;10.13;3.72;;;13.80;99.90;;;;;;5008456;28;20481;-84
2023/03/22 13:09:47;;;;;;;10.48;5.72;;;13.70;99.90;;;;;;4994466;28;20034;-83
2023/03/22 13:12:16;;;;;;;7.25;5.00;;;13.80;99.90;;;;;;5010691;28;20058;-84
2023/03/22 13:14:48;;;;;;;6.45;3.35;;;13.80;99.90;;;;;;5010791;28;20022;-83
2023/03/22 13:17:23;;;;;;;8.63;5.72;;;13.80;99.90;;;;;;4989555;28;20499;-84
2023/03/22 13:19:54;;;;;;;23.00;12.57;;;13.80;99.90;;;;;;5008262;28;20045;-84